createdAt,value
2019-03-21T00:01:35.798Z,101973.81
2019-03-21T00:04:12.322Z,101968.98
2019-03-21T00:06:45.036Z,101970.94
2019-03-21T00:09:19.281Z,101973.55
2019-03-21T00:12:03.532Z,101975.13
2019-03-21T00:15:09.111Z,101982.17
2019-03-21T00:18:03.485Z,101984.33
2019-03-21T00:20:36.167Z,101970.86
2019-03-21T00:23:10.191Z,101969.84
2019-03-21T00:25:42.923Z,101969.13
2019-03-21T00:28:15.478Z,101973.77
2019-03-21T00:30:48.126Z,101964.81
2019-03-21T00:33:20.751Z,101964.44
2019-03-21T00:35:53.439Z,101968.45
2019-03-21T00:38:26.107Z,101972.80
2019-03-21T00:40:58.719Z,101966.38
2019-03-21T00:43:31.316Z,101959.75
2019-03-21T00:46:04.356Z,101953.97
2019-03-21T00:48:37.003Z,101950.70
2019-03-21T00:51:09.675Z,101946.82
2019-03-21T00:53:42.312Z,101949.73
2019-03-21T00:56:14.910Z,101951.55
2019-03-21T00:58:47.477Z,101942.30
2019-03-21T01:01:20.501Z,101936.00
2019-03-21T01:03:53.109Z,101934.48
2019-03-21T01:06:25.793Z,101932.30
2019-03-21T01:08:58.430Z,101924.72
2019-03-21T01:11:30.981Z,101925.39
2019-03-21T01:14:04.761Z,101919.07
2019-03-21T01:16:37.322Z,101919.53
2019-03-21T01:19:09.918Z,101910.70
2019-03-21T01:21:42.491Z,101922.48
2019-03-21T01:24:15.095Z,101911.25
2019-03-21T01:26:47.656Z,101904.62
2019-03-21T01:29:20.291Z,101905.72
2019-03-21T01:31:54.620Z,101909.91
2019-03-21T01:34:27.539Z,101911.76
2019-03-21T01:37:00.160Z,101915.73
2019-03-21T01:39:32.738Z,101911.59
2019-03-21T01:42:05.359Z,101911.55
2019-03-21T01:44:41.182Z,101921.06
2019-03-21T01:47:13.566Z,101928.83
2019-03-21T01:49:46.121Z,101929.92
2019-03-21T01:52:19.234Z,101924.69
2019-03-21T01:54:51.772Z,101919.24
2019-03-21T01:57:24.326Z,101919.08
2019-03-21T01:59:56.875Z,101920.09
2019-03-21T02:02:29.976Z,101914.17
2019-03-21T02:05:02.534Z,101909.31
2019-03-21T02:07:35.119Z,101903.57
2019-03-21T02:10:11.299Z,101899.86
2019-03-21T02:12:43.902Z,101894.55
2019-03-21T02:15:16.524Z,101894.75
2019-03-21T02:17:49.198Z,101896.95
2019-03-21T02:20:21.836Z,101890.31
2019-03-21T02:22:54.480Z,101882.89
2019-03-21T02:25:30.263Z,101883.22
2019-03-21T02:28:02.801Z,101879.38
2019-03-21T02:30:37.283Z,101881.28
2019-03-21T02:33:23.657Z,101874.32
2019-03-21T02:35:56.253Z,101871.31
2019-03-21T02:38:28.808Z,101875.38
2019-03-21T02:41:03.915Z,101880.86
2019-03-21T02:43:36.674Z,101877.73
2019-03-21T02:46:09.233Z,101883.73
2019-03-21T02:48:42.270Z,101890.86
2019-03-21T02:51:14.862Z,101891.20
2019-03-21T02:53:47.780Z,101899.02
2019-03-21T02:56:21.256Z,101893.09
2019-03-21T02:58:54.011Z,101890.06
2019-03-21T03:01:26.570Z,101895.38
2019-03-21T03:03:59.405Z,101891.92
2019-03-21T03:06:31.971Z,101896.27
2019-03-21T03:09:06.294Z,101892.05
2019-03-21T03:11:38.823Z,101898.80
2019-03-21T03:14:11.428Z,101909.27
2019-03-21T03:16:44.079Z,101904.42
2019-03-21T03:19:16.947Z,101913.70
2019-03-21T03:21:49.621Z,101913.70
2019-03-21T03:24:25.199Z,101914.76
2019-03-21T03:26:57.985Z,101925.14
2019-03-21T03:29:30.584Z,101923.25
2019-03-21T03:32:03.142Z,101928.30
2019-03-21T03:34:36.329Z,101927.04
2019-03-21T03:37:10.153Z,101932.45
2019-03-21T03:39:43.698Z,101931.87
2019-03-21T03:42:17.314Z,101941.49
2019-03-21T03:44:50.976Z,101930.97
2019-03-21T03:47:23.607Z,101934.84
2019-03-21T03:49:56.158Z,101938.11
2019-03-21T03:52:28.855Z,101942.53
2019-03-21T03:55:01.454Z,101944.73
2019-03-21T03:57:34.383Z,101953.44
2019-03-21T04:00:08.636Z,101948.70
2019-03-21T04:02:41.416Z,101957.31
2019-03-21T04:05:14.086Z,101950.05
2019-03-21T04:07:47.044Z,101954.39
2019-03-21T04:10:26.733Z,101950.20
2019-03-21T04:12:59.335Z,101951.59
2019-03-21T04:15:31.933Z,101955.06
2019-03-21T04:18:04.555Z,101948.83
2019-03-21T04:20:39.316Z,101949.14
2019-03-21T04:23:12.084Z,101942.74
2019-03-21T04:25:58.612Z,101942.74
2019-03-21T04:28:31.159Z,101943.98
2019-03-21T04:31:03.754Z,101945.59
2019-03-21T04:33:36.359Z,101949.59
2019-03-21T04:36:09.224Z,101945.55
2019-03-21T04:38:41.941Z,101943.41
2019-03-21T04:41:14.505Z,101955.77
2019-03-21T04:43:47.176Z,101952.42
2019-03-21T04:46:19.756Z,101956.30
2019-03-21T04:48:52.338Z,101958.87
2019-03-21T04:51:25.184Z,101954.88
2019-03-21T04:53:57.867Z,101958.87
2019-03-21T04:56:30.837Z,101959.80
2019-03-21T04:59:03.499Z,101962.49
2019-03-21T05:01:36.061Z,101962.65
2019-03-21T05:04:08.645Z,101959.99
2019-03-21T05:06:41.429Z,101958.64
2019-03-21T05:09:18.735Z,101965.07
2019-03-21T05:11:51.345Z,101969.69
2019-03-21T05:14:25.193Z,101967.53
2019-03-21T05:16:57.810Z,101960.95
2019-03-21T05:19:30.370Z,101963.50
2019-03-21T05:22:03.326Z,101960.53
2019-03-21T05:24:35.934Z,101963.30
2019-03-21T05:27:08.494Z,101961.03
2019-03-21T05:29:41.108Z,101962.77
2019-03-21T05:32:14.671Z,101964.98
2019-03-21T05:34:47.256Z,101962.83
2019-03-21T05:37:20.122Z,101964.61
2019-03-21T05:39:52.755Z,101968.22
2019-03-21T05:42:26.952Z,101972.03
2019-03-21T05:44:59.553Z,101972.08
2019-03-21T05:47:32.200Z,101968.95
2019-03-21T05:50:04.875Z,101975.73
2019-03-21T05:52:37.670Z,101975.19
2019-03-21T05:55:11.168Z,101975.15
2019-03-21T05:57:43.953Z,101977.42
2019-03-21T06:00:30.259Z,101972.65
2019-03-21T06:03:04.325Z,101971.57
2019-03-21T06:05:37.358Z,101975.34
2019-03-21T06:08:27.159Z,101969.41
2019-03-21T06:11:01.015Z,101977.53
2019-03-21T06:13:33.655Z,101976.83
2019-03-21T06:16:13.245Z,101978.14
2019-03-21T06:19:14.302Z,101980.45
2019-03-21T06:22:58.764Z,101980.95
2019-03-21T06:26:18.021Z,101986.59
2019-03-21T06:28:50.590Z,101983.66
2019-03-21T06:31:23.201Z,101993.58
2019-03-21T06:33:55.805Z,101997.20
2019-03-21T06:36:28.396Z,101993.03
2019-03-21T06:39:01.373Z,101998.19
2019-03-21T06:41:35.294Z,102001.45
2019-03-21T06:44:07.991Z,102002.34
2019-03-21T06:46:48.911Z,102002.51
2019-03-21T06:49:14.961Z,102000.14
2019-03-21T06:51:48.551Z,102001.95
2019-03-21T06:54:21.163Z,102016.37
2019-03-21T06:56:54.841Z,102005.92
2019-03-21T06:59:28.108Z,102008.37
2019-03-21T07:02:00.690Z,102012.63
2019-03-21T07:04:33.248Z,102007.66
2019-03-21T07:07:08.309Z,102011.75
2019-03-21T07:09:40.349Z,102012.03
2019-03-21T07:12:12.935Z,102014.28
2019-03-21T07:14:45.513Z,102019.91
2019-03-21T07:17:18.071Z,102024.36
2019-03-21T07:19:50.666Z,102028.28
2019-03-21T07:22:23.252Z,102022.03
2019-03-21T07:24:56.224Z,102029.34
2019-03-21T07:27:28.773Z,102024.00
2019-03-21T07:30:02.399Z,102025.84
2019-03-21T07:32:34.964Z,102029.55
2019-03-21T07:35:08.925Z,102031.56
2019-03-21T07:37:41.544Z,102030.00
2019-03-21T07:40:15.034Z,102028.28
2019-03-21T07:42:47.639Z,102024.70
2019-03-21T07:45:20.323Z,102020.48
2019-03-21T07:47:52.979Z,102027.88
2019-03-21T07:50:25.577Z,102032.69
2019-03-21T07:52:58.194Z,102033.87
2019-03-21T07:55:31.070Z,102032.67
2019-03-21T07:58:03.754Z,102040.20
2019-03-21T08:00:36.328Z,102039.78
2019-03-21T08:03:08.904Z,102045.91
2019-03-21T08:05:41.492Z,102040.37
2019-03-21T08:08:14.170Z,102044.72
2019-03-21T08:10:47.249Z,102046.39
2019-03-21T08:13:19.876Z,102048.50
2019-03-21T08:15:52.422Z,102044.17
2019-03-21T08:18:25.037Z,102048.81
2019-03-21T08:21:00.055Z,102045.90
2019-03-21T08:23:32.991Z,102046.95
2019-03-21T08:26:05.909Z,102043.66
2019-03-21T08:28:38.606Z,102039.66
2019-03-21T08:31:22.198Z,102048.61
2019-03-21T08:33:54.908Z,102049.80
2019-03-21T08:36:28.685Z,102050.59
2019-03-21T08:39:01.319Z,102047.71
2019-03-21T08:41:35.811Z,102047.55
2019-03-21T08:44:08.459Z,102045.25
2019-03-21T08:46:41.091Z,102048.42
2019-03-21T08:49:13.667Z,102056.39
2019-03-21T08:51:46.269Z,102045.63
2019-03-21T08:54:18.838Z,102046.15
2019-03-21T08:56:51.792Z,102044.12
2019-03-21T08:59:24.573Z,102044.46
2019-03-21T09:01:57.489Z,102054.13
2019-03-21T09:04:30.081Z,102051.38
2019-03-21T09:07:02.770Z,102047.95
2019-03-21T09:09:35.368Z,102042.00
2019-03-21T09:12:08.196Z,102045.10
2019-03-21T09:14:40.824Z,102054.17
2019-03-21T09:17:13.452Z,102056.36
2019-03-21T09:19:46.229Z,102054.78
2019-03-21T09:22:18.847Z,102047.77
2019-03-21T09:24:51.543Z,102056.66
2019-03-21T09:27:24.564Z,102059.09
2019-03-21T09:29:57.206Z,102059.62
2019-03-21T09:32:29.810Z,102055.31
2019-03-21T09:35:02.415Z,102062.56
2019-03-21T09:37:35.011Z,102061.83
2019-03-21T09:40:09.043Z,102063.86
2019-03-21T09:42:42.757Z,102060.69
2019-03-21T09:45:15.426Z,102061.80
2019-03-21T09:47:48.078Z,102059.36
2019-03-21T09:50:29.890Z,102052.69
2019-03-21T09:53:02.464Z,102066.38
2019-03-21T09:55:35.307Z,102061.22
2019-03-21T09:58:08.511Z,102054.44
2019-03-21T10:00:41.408Z,102060.83
2019-03-21T10:03:14.093Z,102055.39
2019-03-21T10:05:46.708Z,102061.74
2019-03-21T10:08:19.400Z,102057.72
2019-03-21T10:10:52.009Z,102064.16
2019-03-21T10:13:25.111Z,102061.13
2019-03-21T10:15:57.664Z,102067.16
2019-03-21T10:18:30.311Z,102067.45
2019-03-21T10:21:02.895Z,102066.85
2019-03-21T10:23:35.584Z,102072.89
2019-03-21T10:26:08.187Z,102072.56
2019-03-21T10:28:41.111Z,102071.78
2019-03-21T10:31:13.761Z,102065.32
2019-03-21T10:33:46.468Z,102061.89
2019-03-21T10:36:19.069Z,102057.48
2019-03-21T10:38:51.713Z,102055.52
2019-03-21T10:41:24.282Z,102047.19
2019-03-21T10:43:57.062Z,102046.63
2019-03-21T10:46:29.654Z,102046.03
2019-03-21T10:49:02.355Z,102047.39
2019-03-21T10:51:34.946Z,102044.10
2019-03-21T10:54:07.562Z,102042.76
2019-03-21T10:56:40.137Z,102053.38
2019-03-21T10:59:13.687Z,102049.20
2019-03-21T11:01:46.290Z,102043.66
2019-03-21T11:04:19.160Z,102043.95
2019-03-21T11:07:00.195Z,102036.75
2019-03-21T11:09:33.352Z,102040.19
2019-03-21T11:12:06.035Z,102032.91
2019-03-21T11:14:38.667Z,102042.70
2019-03-21T11:17:11.230Z,102030.45
2019-03-21T11:19:43.837Z,102022.42
2019-03-21T11:22:16.487Z,102024.23
2019-03-21T11:24:49.067Z,102024.56
2019-03-21T11:27:21.679Z,102023.73
2019-03-21T11:29:54.613Z,102027.77
2019-03-21T11:32:27.255Z,102024.02
2019-03-21T11:34:59.803Z,102025.52
2019-03-21T11:37:32.422Z,102012.00
2019-03-21T11:40:05.281Z,102013.26
2019-03-21T11:42:38.083Z,102008.16
2019-03-21T11:45:10.743Z,102007.45
2019-03-21T11:47:43.342Z,101988.97
2019-03-21T11:50:17.141Z,102002.39
2019-03-21T11:52:49.691Z,102004.66
2019-03-21T11:55:22.301Z,102007.11
2019-03-21T11:57:54.941Z,102007.88
2019-03-21T12:00:28.119Z,102007.34
2019-03-21T12:03:00.703Z,102004.97
2019-03-21T12:05:34.663Z,102005.91
2019-03-21T12:08:07.259Z,102008.27
2019-03-21T12:10:39.873Z,102008.55
2019-03-21T12:13:12.497Z,102005.42
2019-03-21T12:15:45.100Z,102004.97
2019-03-21T12:18:17.692Z,102002.30
2019-03-21T12:20:50.309Z,102005.34
2019-03-21T12:23:22.887Z,101999.08
2019-03-21T12:25:55.513Z,101999.94
2019-03-21T12:28:28.067Z,102004.49
2019-03-21T12:31:01.226Z,102002.17
2019-03-21T12:33:34.757Z,101995.84
2019-03-21T12:36:07.375Z,101995.92
2019-03-21T12:38:39.955Z,101990.00
2019-03-21T12:41:12.693Z,101989.18
2019-03-21T12:43:45.259Z,101988.70
2019-03-21T12:46:18.295Z,101991.83
2019-03-21T12:48:50.900Z,101984.67
2019-03-21T12:51:23.514Z,101983.86
2019-03-21T12:53:56.096Z,101986.80
2019-03-21T12:56:28.712Z,101982.67
2019-03-21T12:59:01.349Z,101971.30
2019-03-21T13:01:34.033Z,101980.37
2019-03-21T13:04:06.766Z,101966.86
2019-03-21T13:06:39.714Z,101975.08
2019-03-21T13:09:12.277Z,101972.41
2019-03-21T13:11:44.948Z,101967.36
2019-03-21T13:14:17.571Z,101957.30
2019-03-21T13:16:50.187Z,101956.27
2019-03-21T13:19:22.773Z,101960.38
2019-03-21T13:21:55.401Z,101955.45
2019-03-21T13:24:27.994Z,101959.26
2019-03-21T13:27:00.595Z,101955.77
2019-03-21T13:29:33.173Z,101961.52
2019-03-21T13:32:06.190Z,101958.73
2019-03-21T13:34:39.997Z,101953.25
2019-03-21T13:37:12.579Z,101954.03
2019-03-21T13:39:45.289Z,101945.28
2019-03-21T13:42:17.927Z,101942.76
2019-03-21T13:44:51.663Z,101940.50
2019-03-21T13:47:24.345Z,101950.07
2019-03-21T13:49:57.108Z,101944.89
2019-03-21T13:52:30.874Z,101935.37
2019-03-21T13:55:03.487Z,101940.11
2019-03-21T13:57:36.164Z,101930.96
2019-03-21T14:00:13.148Z,101935.23
2019-03-21T14:02:46.145Z,101929.73
2019-03-21T14:05:18.965Z,101929.02
2019-03-21T14:07:51.654Z,101936.09
2019-03-21T14:10:24.316Z,101926.70
2019-03-21T14:12:56.917Z,101924.87
2019-03-21T14:15:29.508Z,101918.22
2019-03-21T14:18:02.195Z,101913.69
2019-03-21T14:20:34.804Z,101913.81
2019-03-21T14:23:16.542Z,101914.02
2019-03-21T14:25:41.865Z,101915.02
2019-03-21T14:28:15.897Z,101907.89
2019-03-21T14:30:48.514Z,101910.92
2019-03-21T14:33:21.315Z,101899.36
2019-03-21T14:35:53.952Z,101912.45
2019-03-21T14:38:26.745Z,101907.32
2019-03-21T14:40:59.548Z,101906.42
2019-03-21T14:43:32.166Z,101900.39
2019-03-21T14:46:04.854Z,101906.70
2019-03-21T14:48:37.737Z,101905.34
2019-03-21T14:51:10.371Z,101907.98
2019-03-21T14:53:43.026Z,101902.61
2019-03-21T14:56:15.669Z,101900.55
2019-03-21T14:58:48.284Z,101901.40
2019-03-21T15:01:20.916Z,101895.48
2019-03-21T15:03:53.888Z,101891.39
2019-03-21T15:06:26.696Z,101894.15
2019-03-21T15:08:59.438Z,101900.53
2019-03-21T15:11:32.077Z,101895.70
2019-03-21T15:14:05.489Z,101898.48
2019-03-21T15:16:38.268Z,101889.45
2019-03-21T15:19:11.740Z,101889.26
2019-03-21T15:21:44.546Z,101897.58
2019-03-21T15:24:17.231Z,101890.03
2019-03-21T15:26:51.175Z,101903.23
2019-03-21T15:29:23.968Z,101903.77
2019-03-21T15:31:56.566Z,101890.45
2019-03-21T15:34:29.484Z,101889.88
2019-03-21T15:37:02.127Z,101890.47
2019-03-21T15:39:34.775Z,101895.30
2019-03-21T15:42:07.523Z,101900.31
2019-03-21T15:44:40.199Z,101900.28
2019-03-21T15:47:12.854Z,101897.42
2019-03-21T15:49:45.941Z,101884.55
2019-03-21T15:52:18.659Z,101890.80
2019-03-21T15:54:51.320Z,101889.61
2019-03-21T15:57:24.244Z,101881.09
2019-03-21T15:59:56.924Z,101882.05
2019-03-21T16:02:29.719Z,101889.18
2019-03-21T16:05:02.561Z,101891.22
2019-03-21T16:07:35.371Z,101894.61
2019-03-21T16:10:09.276Z,101896.52
2019-03-21T16:12:41.876Z,101890.08
2019-03-21T16:15:14.986Z,101890.00
2019-03-21T16:17:47.957Z,101895.02
2019-03-21T16:20:20.905Z,101896.22
2019-03-21T16:22:53.520Z,101893.28
2019-03-21T16:25:26.114Z,101892.34
2019-03-21T16:27:58.804Z,101888.58
2019-03-21T16:30:31.513Z,101886.83
2019-03-21T16:33:04.277Z,101882.41
2019-03-21T16:35:37.256Z,101877.67
2019-03-21T16:38:10.035Z,101873.71
2019-03-21T16:40:43.013Z,101868.91
2019-03-21T16:43:15.713Z,101869.94
2019-03-21T16:45:48.392Z,101865.73
2019-03-21T16:48:21.302Z,101875.58
2019-03-21T16:50:54.266Z,101874.00
2019-03-21T16:53:26.922Z,101858.73
2019-03-21T16:55:59.992Z,101861.06
2019-03-21T16:58:33.898Z,101863.76
2019-03-21T17:01:07.831Z,101863.77
2019-03-21T17:03:40.841Z,101857.47
2019-03-21T17:06:13.685Z,101865.66
2019-03-21T17:08:46.513Z,101867.08
2019-03-21T17:11:19.450Z,101864.27
2019-03-21T17:13:52.219Z,101868.41
2019-03-21T17:16:24.995Z,101874.13
2019-03-21T17:18:57.960Z,101872.98
2019-03-21T17:21:31.312Z,101873.35
2019-03-21T17:24:04.295Z,101880.34
2019-03-21T17:26:37.088Z,101879.23
2019-03-21T17:29:09.863Z,101886.74
2019-03-21T17:31:42.534Z,101883.80
2019-03-21T17:34:15.234Z,101884.44
2019-03-21T17:36:48.239Z,101889.01
2019-03-21T17:39:20.964Z,101888.39
2019-03-21T17:41:53.610Z,101883.89
2019-03-21T17:44:26.233Z,101893.03
2019-03-21T17:46:58.935Z,101889.69
2019-03-21T17:49:32.748Z,101888.06
2019-03-21T17:52:05.454Z,101897.45
2019-03-21T17:54:41.683Z,101896.75
2019-03-21T17:57:12.657Z,101894.53
2019-03-21T17:59:45.267Z,101896.34
2019-03-21T18:02:18.808Z,101899.20
2019-03-21T18:04:51.465Z,101888.30
2019-03-21T18:07:24.105Z,101892.98
2019-03-21T18:09:56.900Z,101896.50
2019-03-21T18:12:30.647Z,101897.95
2019-03-21T18:15:03.398Z,101895.02
2019-03-21T18:17:36.140Z,101890.13
2019-03-21T18:20:09.127Z,101893.16
2019-03-21T18:22:42.007Z,101887.05
2019-03-21T18:25:15.018Z,101883.64
2019-03-21T18:27:48.812Z,101883.50
2019-03-21T18:30:21.519Z,101890.66
2019-03-21T18:32:54.788Z,101886.48
2019-03-21T18:35:27.670Z,101880.50
2019-03-21T18:38:00.585Z,101881.81
2019-03-21T18:40:33.261Z,101880.87
2019-03-21T18:43:06.153Z,101878.61
2019-03-21T18:45:38.763Z,101878.61
2019-03-21T18:48:11.499Z,101882.86
2019-03-21T18:50:44.349Z,101877.02
2019-03-21T18:53:17.361Z,101869.16
2019-03-21T18:55:50.091Z,101867.47
2019-03-21T18:58:22.857Z,101870.64
2019-03-21T19:00:55.555Z,101874.12
2019-03-21T19:03:28.337Z,101867.00
2019-03-21T19:06:01.111Z,101861.22
2019-03-21T19:08:34.078Z,101861.94
2019-03-21T19:11:06.701Z,101855.05
2019-03-21T19:13:39.448Z,101858.66
2019-03-21T19:16:12.209Z,101856.19
2019-03-21T19:18:45.006Z,101842.22
2019-03-21T19:21:17.735Z,101850.31
2019-03-21T19:23:50.339Z,101839.98
2019-03-21T19:26:22.990Z,101839.41
2019-03-21T19:28:55.645Z,101829.49
2019-03-21T19:31:28.421Z,101836.34
2019-03-21T19:34:01.122Z,101838.02
2019-03-21T19:36:33.865Z,101838.45
2019-03-21T19:39:10.455Z,101833.72
2019-03-21T19:41:43.096Z,101836.72
2019-03-21T19:44:15.755Z,101845.14
2019-03-21T19:46:48.399Z,101834.08
2019-03-21T19:49:21.024Z,101847.95
2019-03-21T19:51:53.708Z,101857.64
2019-03-21T19:54:26.875Z,101850.84
2019-03-21T19:56:59.468Z,101844.80
2019-03-21T19:59:32.122Z,101845.45
2019-03-21T20:02:05.198Z,101835.77
2019-03-21T20:04:37.936Z,101832.84
2019-03-21T20:07:10.577Z,101838.64
2019-03-21T20:09:43.725Z,101837.27
2019-03-21T20:12:16.333Z,101830.09
2019-03-21T20:14:49.341Z,101844.88
2019-03-21T20:17:22.115Z,101844.34
2019-03-21T20:19:54.873Z,101845.88
2019-03-21T20:22:27.486Z,101842.19
2019-03-21T20:25:00.425Z,101848.64
2019-03-21T20:27:33.151Z,101847.45
2019-03-21T20:30:07.328Z,101852.23
2019-03-21T20:32:40.039Z,101853.42
2019-03-21T20:35:13.135Z,101846.38
2019-03-21T20:37:45.866Z,101847.31
2019-03-21T20:40:19.144Z,101851.92
2019-03-21T20:42:52.035Z,101839.69
2019-03-21T20:45:24.702Z,101843.56
2019-03-21T20:47:57.422Z,101842.25
2019-03-21T20:50:30.056Z,101844.41
2019-03-21T20:53:02.859Z,101846.01
2019-03-21T20:55:35.853Z,101844.34
2019-03-21T20:58:08.683Z,101845.41
2019-03-21T21:00:41.495Z,101849.42
2019-03-21T21:03:14.333Z,101858.88
2019-03-21T21:05:47.063Z,101855.68
2019-03-21T21:08:19.909Z,101856.24
2019-03-21T21:10:52.852Z,101861.25
2019-03-21T21:13:25.560Z,101871.52
2019-03-21T21:15:58.321Z,101871.59
2019-03-21T21:18:30.954Z,101865.98
2019-03-21T21:21:03.726Z,101867.70
2019-03-21T21:23:36.438Z,101876.38
2019-03-21T21:26:09.059Z,101886.36
2019-03-21T21:28:41.993Z,101890.31
2019-03-21T21:31:14.741Z,101885.39
2019-03-21T21:33:47.438Z,101867.51
2019-03-21T21:36:22.124Z,101873.56
2019-03-21T21:38:54.467Z,101876.50
2019-03-21T21:41:27.090Z,101864.66
2019-03-21T21:43:59.818Z,101875.47
2019-03-21T21:46:32.434Z,101881.88
2019-03-21T21:49:05.193Z,101873.55
2019-03-21T21:51:37.798Z,101878.88
2019-03-21T21:54:10.410Z,101874.92
2019-03-21T21:56:43.350Z,101886.76
2019-03-21T21:59:15.958Z,101889.11
2019-03-21T22:01:48.540Z,101892.15
2019-03-21T22:04:21.158Z,101892.68
2019-03-21T22:06:53.801Z,101887.73
2019-03-21T22:09:26.395Z,101892.92
2019-03-21T22:11:58.927Z,101896.97
2019-03-21T22:14:31.587Z,101895.10
2019-03-21T22:17:04.388Z,101892.98
2019-03-21T22:19:37.121Z,101890.16
2019-03-21T22:22:09.759Z,101880.90
2019-03-21T22:24:42.415Z,101881.37
2019-03-21T22:27:15.361Z,101876.47
2019-03-21T22:29:47.977Z,101875.02
2019-03-21T22:32:20.601Z,101877.53
2019-03-21T22:34:53.283Z,101872.21
2019-03-21T22:37:25.931Z,101883.05
2019-03-21T22:39:58.590Z,101879.62
2019-03-21T22:42:31.600Z,101877.70
2019-03-21T22:45:04.407Z,101872.63
2019-03-21T22:47:37.014Z,101876.58
2019-03-21T22:50:14.915Z,101874.04
2019-03-21T22:52:48.009Z,101870.36
2019-03-21T22:55:20.618Z,101858.80
2019-03-21T22:57:53.739Z,101861.83
2019-03-21T23:00:35.028Z,101864.63
2019-03-21T23:03:08.039Z,101861.69
2019-03-21T23:05:41.839Z,101866.41
2019-03-21T23:08:14.547Z,101870.17
2019-03-21T23:10:47.153Z,101865.56
2019-03-21T23:13:20.318Z,101869.88
2019-03-21T23:15:52.989Z,101863.98
2019-03-21T23:18:25.596Z,101854.79
2019-03-21T23:20:58.235Z,101848.43
2019-03-21T23:23:30.799Z,101839.87
2019-03-21T23:26:03.423Z,101839.79
2019-03-21T23:28:36.336Z,101832.50
2019-03-21T23:31:09.016Z,101838.83
2019-03-21T23:33:41.839Z,101848.75
2019-03-21T23:36:14.520Z,101854.53
2019-03-21T23:38:47.098Z,101848.98
2019-03-21T23:41:19.799Z,101854.23
2019-03-21T23:43:52.517Z,101853.57
2019-03-21T23:46:25.098Z,101865.80
2019-03-21T23:48:57.677Z,101857.48
2019-03-21T23:51:30.256Z,101855.16
2019-03-21T23:54:02.893Z,101858.59
2019-03-21T23:56:35.447Z,101851.65
2019-03-21T23:59:08.336Z,101847.03
